sensor_id;sensor_type;location;lat;lon;timestamp;temperature;humidity
22112;DHT22;11222;50.872;4.312;2023-04-06T00:01:07;10.80;92.20
22112;DHT22;11222;50.872;4.312;2023-04-06T00:03:33;10.80;92.30
22112;DHT22;11222;50.872;4.312;2023-04-06T00:05:58;10.80;92.60
22112;DHT22;11222;50.872;4.312;2023-04-06T00:08:25;10.80;92.30
22112;DHT22;11222;50.872;4.312;2023-04-06T00:10:51;10.70;92.70
22112;DHT22;11222;50.872;4.312;2023-04-06T00:13:16;10.60;92.90
22112;DHT22;11222;50.872;4.312;2023-04-06T00:15:42;10.50;93.00
22112;DHT22;11222;50.872;4.312;2023-04-06T00:18:08;10.50;92.90
22112;DHT22;11222;50.872;4.312;2023-04-06T00:20:33;10.50;93.10
22112;DHT22;11222;50.872;4.312;2023-04-06T00:22:59;10.50;93.20
22112;DHT22;11222;50.872;4.312;2023-04-06T00:25:25;10.50;93.30
22112;DHT22;11222;50.872;4.312;2023-04-06T00:27:51;10.50;93.40
22112;DHT22;11222;50.872;4.312;2023-04-06T00:30:17;10.50;93.50
22112;DHT22;11222;50.872;4.312;2023-04-06T00:32:42;10.50;93.60
22112;DHT22;11222;50.872;4.312;2023-04-06T00:35:08;10.50;93.60
22112;DHT22;11222;50.872;4.312;2023-04-06T00:37:34;10.60;93.60
22112;DHT22;11222;50.872;4.312;2023-04-06T00:40:00;10.50;93.70
22112;DHT22;11222;50.872;4.312;2023-04-06T00:42:26;10.50;93.60
22112;DHT22;11222;50.872;4.312;2023-04-06T00:44:57;10.50;93.90
22112;DHT22;11222;50.872;4.312;2023-04-06T00:47:23;10.40;94.00
22112;DHT22;11222;50.872;4.312;2023-04-06T00:49:51;10.40;94.10
22112;DHT22;11222;50.872;4.312;2023-04-06T00:52:17;10.40;94.20
22112;DHT22;11222;50.872;4.312;2023-04-06T00:54:43;10.30;94.30
22112;DHT22;11222;50.872;4.312;2023-04-06T00:57:09;10.10;94.70
22112;DHT22;11222;50.872;4.312;2023-04-06T00:59:35;10.10;95.00
22112;DHT22;11222;50.872;4.312;2023-04-06T01:02:01;10.20;95.00
22112;DHT22;11222;50.872;4.312;2023-04-06T01:04:27;10.10;95.10
22112;DHT22;11222;50.872;4.312;2023-04-06T01:06:53;10.10;95.20
22112;DHT22;11222;50.872;4.312;2023-04-06T01:09:18;10.20;95.20
22112;DHT22;11222;50.872;4.312;2023-04-06T01:11:44;10.30;95.20
22112;DHT22;11222;50.872;4.312;2023-04-06T01:14:10;10.30;95.40
22112;DHT22;11222;50.872;4.312;2023-04-06T01:16:36;10.40;95.30
22112;DHT22;11222;50.872;4.312;2023-04-06T01:19:08;10.40;95.30
22112;DHT22;11222;50.872;4.312;2023-04-06T01:21:34;10.40;95.30
22112;DHT22;11222;50.872;4.312;2023-04-06T01:23:59;10.40;95.20
22112;DHT22;11222;50.872;4.312;2023-04-06T01:26:25;10.50;95.30
22112;DHT22;11222;50.872;4.312;2023-04-06T01:28:51;10.40;95.40
22112;DHT22;11222;50.872;4.312;2023-04-06T01:31:17;10.30;95.60
22112;DHT22;11222;50.872;4.312;2023-04-06T01:33:43;10.30;95.60
22112;DHT22;11222;50.872;4.312;2023-04-06T01:36:09;10.10;96.00
22112;DHT22;11222;50.872;4.312;2023-04-06T01:38:34;10.00;96.30
22112;DHT22;11222;50.872;4.312;2023-04-06T01:41:00;10.10;96.20
22112;DHT22;11222;50.872;4.312;2023-04-06T01:43:26;10.00;96.40
22112;DHT22;11222;50.872;4.312;2023-04-06T01:45:52;9.90;96.50
22112;DHT22;11222;50.872;4.312;2023-04-06T01:48:18;9.90;96.70
22112;DHT22;11222;50.872;4.312;2023-04-06T01:50:43;9.90;96.80
22112;DHT22;11222;50.872;4.312;2023-04-06T01:53:09;9.90;96.80
22112;DHT22;11222;50.872;4.312;2023-04-06T01:55:35;9.80;96.90
22112;DHT22;11222;50.872;4.312;2023-04-06T01:58:01;9.80;97.00
22112;DHT22;11222;50.872;4.312;2023-04-06T02:00:27;9.70;97.20
22112;DHT22;11222;50.872;4.312;2023-04-06T02:02:52;9.70;97.40
22112;DHT22;11222;50.872;4.312;2023-04-06T02:05:19;9.70;97.40
22112;DHT22;11222;50.872;4.312;2023-04-06T02:07:45;9.70;97.50
22112;DHT22;11222;50.872;4.312;2023-04-06T02:10:14;9.70;97.70
22112;DHT22;11222;50.872;4.312;2023-04-06T02:12:40;9.70;97.60
22112;DHT22;11222;50.872;4.312;2023-04-06T02:15:06;9.70;97.70
22112;DHT22;11222;50.872;4.312;2023-04-06T02:17:32;9.70;97.90
22112;DHT22;11222;50.872;4.312;2023-04-06T02:19:58;9.70;97.90
22112;DHT22;11222;50.872;4.312;2023-04-06T02:22:24;9.70;97.90
22112;DHT22;11222;50.872;4.312;2023-04-06T02:24:49;9.70;98.10
22112;DHT22;11222;50.872;4.312;2023-04-06T02:27:15;9.60;98.40
22112;DHT22;11222;50.872;4.312;2023-04-06T02:29:41;9.70;98.20
22112;DHT22;11222;50.872;4.312;2023-04-06T02:32:07;9.60;98.40
22112;DHT22;11222;50.872;4.312;2023-04-06T02:34:33;9.60;98.40
22112;DHT22;11222;50.872;4.312;2023-04-06T02:36:58;9.70;98.40
22112;DHT22;11222;50.872;4.312;2023-04-06T02:39:24;9.60;98.70
22112;DHT22;11222;50.872;4.312;2023-04-06T02:41:50;9.60;98.80
22112;DHT22;11222;50.872;4.312;2023-04-06T02:44:16;9.60;98.80
22112;DHT22;11222;50.872;4.312;2023-04-06T02:46:41;9.60;98.80
22112;DHT22;11222;50.872;4.312;2023-04-06T02:49:07;9.60;99.00
22112;DHT22;11222;50.872;4.312;2023-04-06T02:51:33;9.60;99.00
22112;DHT22;11222;50.872;4.312;2023-04-06T02:53:59;9.70;99.00
22112;DHT22;11222;50.872;4.312;2023-04-06T02:56:25;9.80;99.00
22112;DHT22;11222;50.872;4.312;2023-04-06T02:58:51;9.80;99.00
22112;DHT22;11222;50.872;4.312;2023-04-06T03:01:17;9.70;99.10
22112;DHT22;11222;50.872;4.312;2023-04-06T03:03:43;9.80;99.10
22112;DHT22;11222;50.872;4.312;2023-04-06T03:06:08;9.70;99.20
22112;DHT22;11222;50.872;4.312;2023-04-06T03:08:34;9.70;99.20
22112;DHT22;11222;50.872;4.312;2023-04-06T03:11:00;9.70;99.30
22112;DHT22;11222;50.872;4.312;2023-04-06T03:13:26;9.80;99.20
22112;DHT22;11222;50.872;4.312;2023-04-06T03:15:52;9.80;99.20
22112;DHT22;11222;50.872;4.312;2023-04-06T03:18:21;9.70;99.30
22112;DHT22;11222;50.872;4.312;2023-04-06T03:20:48;9.50;99.60
22112;DHT22;11222;50.872;4.312;2023-04-06T03:23:13;9.40;99.90
22112;DHT22;11222;50.872;4.312;2023-04-06T03:25:39;9.40;99.90
22112;DHT22;11222;50.872;4.312;2023-04-06T03:28:05;9.40;99.90
22112;DHT22;11222;50.872;4.312;2023-04-06T03:30:31;9.40;99.90
22112;DHT22;11222;50.872;4.312;2023-04-06T03:32:57;9.40;99.90
22112;DHT22;11222;50.872;4.312;2023-04-06T03:35:23;9.30;99.90
22112;DHT22;11222;50.872;4.312;2023-04-06T03:37:49;9.30;99.90
22112;DHT22;11222;50.872;4.312;2023-04-06T03:40:15;9.40;99.90
22112;DHT22;11222;50.872;4.312;2023-04-06T03:42:40;9.40;99.90
22112;DHT22;11222;50.872;4.312;2023-04-06T03:45:06;9.40;99.90
22112;DHT22;11222;50.872;4.312;2023-04-06T03:47:32;9.40;99.90
22112;DHT22;11222;50.872;4.312;2023-04-06T03:49:58;9.40;99.90
22112;DHT22;11222;50.872;4.312;2023-04-06T03:52:23;9.50;99.90
22112;DHT22;11222;50.872;4.312;2023-04-06T03:54:49;9.50;99.90
22112;DHT22;11222;50.872;4.312;2023-04-06T03:57:15;9.50;99.90
22112;DHT22;11222;50.872;4.312;2023-04-06T03:59:41;9.40;99.90
22112;DHT22;11222;50.872;4.312;2023-04-06T04:02:06;9.40;99.90
22112;DHT22;11222;50.872;4.312;2023-04-06T04:04:32;9.40;99.90
22112;DHT22;11222;50.872;4.312;2023-04-06T04:06:58;9.30;99.90
22112;DHT22;11222;50.872;4.312;2023-04-06T04:09:23;9.20;99.90
22112;DHT22;11222;50.872;4.312;2023-04-06T04:11:49;9.20;99.90
22112;DHT22;11222;50.872;4.312;2023-04-06T04:14:15;9.00;99.90
22112;DHT22;11222;50.872;4.312;2023-04-06T04:16:41;9.00;99.90
22112;DHT22;11222;50.872;4.312;2023-04-06T04:19:07;8.90;99.90
22112;DHT22;11222;50.872;4.312;2023-04-06T04:21:33;8.90;99.90
22112;DHT22;11222;50.872;4.312;2023-04-06T04:23:58;8.90;99.90
22112;DHT22;11222;50.872;4.312;2023-04-06T04:26:24;8.90;99.90
22112;DHT22;11222;50.872;4.312;2023-04-06T04:28:50;8.80;99.90
22112;DHT22;11222;50.872;4.312;2023-04-06T04:31:15;8.80;99.90
22112;DHT22;11222;50.872;4.312;2023-04-06T04:33:44;8.80;99.90
22112;DHT22;11222;50.872;4.312;2023-04-06T04:36:09;8.80;99.90
22112;DHT22;11222;50.872;4.312;2023-04-06T04:38:35;8.90;99.90
22112;DHT22;11222;50.872;4.312;2023-04-06T04:41:01;8.90;99.90
22112;DHT22;11222;50.872;4.312;2023-04-06T04:43:27;8.90;99.90
22112;DHT22;11222;50.872;4.312;2023-04-06T04:45:52;8.90;99.90
22112;DHT22;11222;50.872;4.312;2023-04-06T04:48:18;8.90;99.90
22112;DHT22;11222;50.872;4.312;2023-04-06T04:50:44;8.90;99.90
22112;DHT22;11222;50.872;4.312;2023-04-06T04:53:10;8.90;99.90
22112;DHT22;11222;50.872;4.312;2023-04-06T04:55:35;8.90;99.90
22112;DHT22;11222;50.872;4.312;2023-04-06T04:58:01;8.90;99.90
22112;DHT22;11222;50.872;4.312;2023-04-06T05:00:28;8.90;99.90
22112;DHT22;11222;50.872;4.312;2023-04-06T05:02:53;8.80;99.90
22112;DHT22;11222;50.872;4.312;2023-04-06T05:05:19;8.80;99.90
22112;DHT22;11222;50.872;4.312;2023-04-06T05:07:45;8.70;99.90
22112;DHT22;11222;50.872;4.312;2023-04-06T05:10:11;8.60;99.90
22112;DHT22;11222;50.872;4.312;2023-04-06T05:12:37;8.60;99.90
22112;DHT22;11222;50.872;4.312;2023-04-06T05:15:03;8.60;99.90
22112;DHT22;11222;50.872;4.312;2023-04-06T05:17:29;8.60;99.90
22112;DHT22;11222;50.872;4.312;2023-04-06T05:19:56;8.60;99.90
22112;DHT22;11222;50.872;4.312;2023-04-06T05:22:22;8.60;99.90
22112;DHT22;11222;50.872;4.312;2023-04-06T05:24:47;8.60;99.90
22112;DHT22;11222;50.872;4.312;2023-04-06T05:27:13;8.70;99.90
22112;DHT22;11222;50.872;4.312;2023-04-06T05:29:40;8.70;99.90
22112;DHT22;11222;50.872;4.312;2023-04-06T05:32:06;8.70;99.90
22112;DHT22;11222;50.872;4.312;2023-04-06T05:34:40;8.70;99.90
22112;DHT22;11222;50.872;4.312;2023-04-06T05:37:06;8.70;99.90
22112;DHT22;11222;50.872;4.312;2023-04-06T05:39:32;8.70;99.90
22112;DHT22;11222;50.872;4.312;2023-04-06T05:41:57;8.70;99.90
22112;DHT22;11222;50.872;4.312;2023-04-06T05:44:23;8.70;99.90
22112;DHT22;11222;50.872;4.312;2023-04-06T05:46:49;8.70;99.90
22112;DHT22;11222;50.872;4.312;2023-04-06T05:49:14;8.80;99.90
22112;DHT22;11222;50.872;4.312;2023-04-06T05:51:40;8.80;99.90
22112;DHT22;11222;50.872;4.312;2023-04-06T05:54:06;8.80;99.90
22112;DHT22;11222;50.872;4.312;2023-04-06T05:56:32;8.90;99.90
22112;DHT22;11222;50.872;4.312;2023-04-06T05:58:57;8.80;99.90
22112;DHT22;11222;50.872;4.312;2023-04-06T06:01:23;8.90;99.90
22112;DHT22;11222;50.872;4.312;2023-04-06T06:03:49;9.00;99.90
22112;DHT22;11222;50.872;4.312;2023-04-06T06:06:14;9.00;99.90
22112;DHT22;11222;50.872;4.312;2023-04-06T06:08:40;9.00;99.90
22112;DHT22;11222;50.872;4.312;2023-04-06T06:11:06;9.10;99.90
22112;DHT22;11222;50.872;4.312;2023-04-06T06:13:32;9.10;99.90
22112;DHT22;11222;50.872;4.312;2023-04-06T06:15:57;9.10;99.90
22112;DHT22;11222;50.872;4.312;2023-04-06T06:18:23;9.20;99.90
22112;DHT22;11222;50.872;4.312;2023-04-06T06:20:49;9.20;99.90
22112;DHT22;11222;50.872;4.312;2023-04-06T06:23:15;9.20;99.90
22112;DHT22;11222;50.872;4.312;2023-04-06T06:25:40;9.10;99.90
22112;DHT22;11222;50.872;4.312;2023-04-06T06:28:06;8.90;99.90
22112;DHT22;11222;50.872;4.312;2023-04-06T06:30:32;8.90;99.90
22112;DHT22;11222;50.872;4.312;2023-04-06T06:32:58;8.90;99.90
22112;DHT22;11222;50.872;4.312;2023-04-06T06:35:23;8.80;99.90
22112;DHT22;11222;50.872;4.312;2023-04-06T06:37:49;8.90;99.90
22112;DHT22;11222;50.872;4.312;2023-04-06T06:40:15;8.80;99.90
22112;DHT22;11222;50.872;4.312;2023-04-06T06:42:43;8.80;99.90
22112;DHT22;11222;50.872;4.312;2023-04-06T06:45:09;8.80;99.90
22112;DHT22;11222;50.872;4.312;2023-04-06T06:47:35;8.80;99.90
22112;DHT22;11222;50.872;4.312;2023-04-06T06:50:01;8.70;99.90
22112;DHT22;11222;50.872;4.312;2023-04-06T06:52:28;8.70;99.90
22112;DHT22;11222;50.872;4.312;2023-04-06T06:54:54;8.60;99.90
22112;DHT22;11222;50.872;4.312;2023-04-06T06:57:20;8.60;99.90
22112;DHT22;11222;50.872;4.312;2023-04-06T06:59:46;8.60;99.90
22112;DHT22;11222;50.872;4.312;2023-04-06T07:02:11;8.70;99.90
22112;DHT22;11222;50.872;4.312;2023-04-06T07:04:37;8.90;99.90
22112;DHT22;11222;50.872;4.312;2023-04-06T07:07:03;9.10;99.90
22112;DHT22;11222;50.872;4.312;2023-04-06T07:09:29;9.20;99.90
22112;DHT22;11222;50.872;4.312;2023-04-06T07:11:54;9.20;99.90
22112;DHT22;11222;50.872;4.312;2023-04-06T07:14:21;9.30;99.90
22112;DHT22;11222;50.872;4.312;2023-04-06T07:16:47;9.40;99.90
22112;DHT22;11222;50.872;4.312;2023-04-06T07:19:15;9.40;99.90
22112;DHT22;11222;50.872;4.312;2023-04-06T07:21:41;9.30;99.90
22112;DHT22;11222;50.872;4.312;2023-04-06T07:24:06;9.30;99.90
22112;DHT22;11222;50.872;4.312;2023-04-06T07:26:32;9.40;99.90
22112;DHT22;11222;50.872;4.312;2023-04-06T07:28:58;9.60;99.90
22112;DHT22;11222;50.872;4.312;2023-04-06T07:31:24;9.60;99.90
22112;DHT22;11222;50.872;4.312;2023-04-06T07:33:49;9.60;99.90
22112;DHT22;11222;50.872;4.312;2023-04-06T07:36:15;9.60;99.90
22112;DHT22;11222;50.872;4.312;2023-04-06T07:38:41;9.60;99.90
22112;DHT22;11222;50.872;4.312;2023-04-06T07:41:07;9.50;99.90
22112;DHT22;11222;50.872;4.312;2023-04-06T07:43:32;9.40;99.90
22112;DHT22;11222;50.872;4.312;2023-04-06T07:45:58;9.40;99.90
22112;DHT22;11222;50.872;4.312;2023-04-06T07:48:25;9.40;99.90
22112;DHT22;11222;50.872;4.312;2023-04-06T07:50:51;9.40;99.90
22112;DHT22;11222;50.872;4.312;2023-04-06T07:53:17;9.40;99.90
22112;DHT22;11222;50.872;4.312;2023-04-06T07:55:42;9.40;99.90
22112;DHT22;11222;50.872;4.312;2023-04-06T07:58:08;9.40;99.90
22112;DHT22;11222;50.872;4.312;2023-04-06T08:00:34;9.20;99.90
22112;DHT22;11222;50.872;4.312;2023-04-06T08:02:59;9.30;99.90
22112;DHT22;11222;50.872;4.312;2023-04-06T08:05:25;9.30;99.90
22112;DHT22;11222;50.872;4.312;2023-04-06T08:07:51;9.30;99.90
22112;DHT22;11222;50.872;4.312;2023-04-06T08:10:17;9.30;99.90
22112;DHT22;11222;50.872;4.312;2023-04-06T08:12:42;9.40;99.90
22112;DHT22;11222;50.872;4.312;2023-04-06T08:15:08;9.40;99.90
22112;DHT22;11222;50.872;4.312;2023-04-06T08:17:34;9.40;99.90
22112;DHT22;11222;50.872;4.312;2023-04-06T08:20:00;9.30;99.90
22112;DHT22;11222;50.872;4.312;2023-04-06T08:22:26;9.40;99.90
22112;DHT22;11222;50.872;4.312;2023-04-06T08:24:52;9.40;99.90
22112;DHT22;11222;50.872;4.312;2023-04-06T08:27:17;9.30;99.90
22112;DHT22;11222;50.872;4.312;2023-04-06T08:29:43;9.20;99.90
22112;DHT22;11222;50.872;4.312;2023-04-06T08:32:09;9.30;99.90
22112;DHT22;11222;50.872;4.312;2023-04-06T08:34:36;9.30;99.90
22112;DHT22;11222;50.872;4.312;2023-04-06T08:37:01;9.20;99.90
22112;DHT22;11222;50.872;4.312;2023-04-06T08:39:27;9.10;99.90
22112;DHT22;11222;50.872;4.312;2023-04-06T08:41:53;9.20;99.90
22112;DHT22;11222;50.872;4.312;2023-04-06T08:44:23;9.20;99.90
22112;DHT22;11222;50.872;4.312;2023-04-06T08:46:49;9.10;99.90
22112;DHT22;11222;50.872;4.312;2023-04-06T08:49:16;9.00;99.90
22112;DHT22;11222;50.872;4.312;2023-04-06T08:51:42;9.10;99.90
22112;DHT22;11222;50.872;4.312;2023-04-06T08:54:08;9.10;99.90
22112;DHT22;11222;50.872;4.312;2023-04-06T08:56:37;9.20;99.90
22112;DHT22;11222;50.872;4.312;2023-04-06T08:59:04;9.20;99.90
22112;DHT22;11222;50.872;4.312;2023-04-06T09:01:31;9.20;99.90
22112;DHT22;11222;50.872;4.312;2023-04-06T09:03:59;9.30;99.90
22112;DHT22;11222;50.872;4.312;2023-04-06T09:06:30;9.50;99.90
22112;DHT22;11222;50.872;4.312;2023-04-06T09:08:57;9.50;99.90
22112;DHT22;11222;50.872;4.312;2023-04-06T09:11:23;9.50;99.90
22112;DHT22;11222;50.872;4.312;2023-04-06T09:16:15;9.40;99.90
22112;DHT22;11222;50.872;4.312;2023-04-06T09:18:41;9.50;99.90
22112;DHT22;11222;50.872;4.312;2023-04-06T09:21:08;9.60;99.90
22112;DHT22;11222;50.872;4.312;2023-04-06T09:23:35;9.60;99.90
22112;DHT22;11222;50.872;4.312;2023-04-06T09:26:14;9.70;99.90
22112;DHT22;11222;50.872;4.312;2023-04-06T09:28:47;9.60;99.90
22112;DHT22;11222;50.872;4.312;2023-04-06T09:31:15;9.60;99.90
22112;DHT22;11222;50.872;4.312;2023-04-06T09:33:44;9.60;99.90
22112;DHT22;11222;50.872;4.312;2023-04-06T09:36:10;9.50;99.90
22112;DHT22;11222;50.872;4.312;2023-04-06T09:39:01;9.50;99.90
22112;DHT22;11222;50.872;4.312;2023-04-06T09:41:26;9.50;99.90
22112;DHT22;11222;50.872;4.312;2023-04-06T09:44:04;9.40;99.90
22112;DHT22;11222;50.872;4.312;2023-04-06T09:46:35;9.40;99.90
22112;DHT22;11222;50.872;4.312;2023-04-06T09:49:05;9.40;99.90
22112;DHT22;11222;50.872;4.312;2023-04-06T09:51:36;9.40;99.90
22112;DHT22;11222;50.872;4.312;2023-04-06T09:54:02;9.30;99.90
22112;DHT22;11222;50.872;4.312;2023-04-06T09:59:16;9.40;99.90
22112;DHT22;11222;50.872;4.312;2023-04-06T10:01:46;9.40;99.90
22112;DHT22;11222;50.872;4.312;2023-04-06T10:06:51;9.30;99.90
22112;DHT22;11222;50.872;4.312;2023-04-06T10:09:18;9.30;99.90
22112;DHT22;11222;50.872;4.312;2023-04-06T10:11:47;9.30;99.90
22112;DHT22;11222;50.872;4.312;2023-04-06T10:14:15;9.30;99.90
22112;DHT22;11222;50.872;4.312;2023-04-06T10:16:41;9.40;99.90
22112;DHT22;11222;50.872;4.312;2023-04-06T10:19:22;9.60;99.90
22112;DHT22;11222;50.872;4.312;2023-04-06T10:21:51;9.60;99.90
22112;DHT22;11222;50.872;4.312;2023-04-06T10:24:19;9.40;99.90
22112;DHT22;11222;50.872;4.312;2023-04-06T10:26:57;9.40;99.90
22112;DHT22;11222;50.872;4.312;2023-04-06T10:29:23;9.50;99.90
22112;DHT22;11222;50.872;4.312;2023-04-06T10:31:49;9.50;99.90
22112;DHT22;11222;50.872;4.312;2023-04-06T10:34:15;9.50;99.90
22112;DHT22;11222;50.872;4.312;2023-04-06T10:36:41;9.60;99.90
22112;DHT22;11222;50.872;4.312;2023-04-06T10:39:06;9.60;99.90
22112;DHT22;11222;50.872;4.312;2023-04-06T10:41:34;9.80;99.90
22112;DHT22;11222;50.872;4.312;2023-04-06T10:44:00;9.70;99.90
22112;DHT22;11222;50.872;4.312;2023-04-06T10:46:30;9.60;99.90
22112;DHT22;11222;50.872;4.312;2023-04-06T10:48:56;9.50;99.90
22112;DHT22;11222;50.872;4.312;2023-04-06T10:51:27;9.70;99.90
22112;DHT22;11222;50.872;4.312;2023-04-06T10:53:54;9.70;99.90
22112;DHT22;11222;50.872;4.312;2023-04-06T10:56:22;9.60;99.90
22112;DHT22;11222;50.872;4.312;2023-04-06T10:58:51;9.60;99.90
22112;DHT22;11222;50.872;4.312;2023-04-06T11:01:18;9.60;99.90
22112;DHT22;11222;50.872;4.312;2023-04-06T11:03:48;9.70;99.90
22112;DHT22;11222;50.872;4.312;2023-04-06T11:06:24;9.80;99.90
22112;DHT22;11222;50.872;4.312;2023-04-06T11:08:51;9.90;99.90
22112;DHT22;11222;50.872;4.312;2023-04-06T11:11:22;9.90;99.90
22112;DHT22;11222;50.872;4.312;2023-04-06T11:16:25;9.90;99.90
22112;DHT22;11222;50.872;4.312;2023-04-06T11:19:01;9.90;99.90
22112;DHT22;11222;50.872;4.312;2023-04-06T11:24:12;10.30;99.90
22112;DHT22;11222;50.872;4.312;2023-04-06T11:29:07;10.20;99.90
22112;DHT22;11222;50.872;4.312;2023-04-06T11:31:41;10.10;99.90
22112;DHT22;11222;50.872;4.312;2023-04-06T11:34:20;10.00;99.90
22112;DHT22;11222;50.872;4.312;2023-04-06T11:36:47;10.00;99.90
22112;DHT22;11222;50.872;4.312;2023-04-06T11:39:22;9.80;99.90
22112;DHT22;11222;50.872;4.312;2023-04-06T11:41:59;10.00;99.90
22112;DHT22;11222;50.872;4.312;2023-04-06T11:44:40;9.90;99.90
22112;DHT22;11222;50.872;4.312;2023-04-06T11:47:10;9.80;99.90
22112;DHT22;11222;50.872;4.312;2023-04-06T11:49:41;9.70;99.90
22112;DHT22;11222;50.872;4.312;2023-04-06T11:52:27;9.70;99.90
22112;DHT22;11222;50.872;4.312;2023-04-06T11:54:53;9.80;99.90
22112;DHT22;11222;50.872;4.312;2023-04-06T11:57:21;9.90;99.90
22112;DHT22;11222;50.872;4.312;2023-04-06T11:59:47;10.00;99.90
22112;DHT22;11222;50.872;4.312;2023-04-06T12:02:13;10.10;99.90
22112;DHT22;11222;50.872;4.312;2023-04-06T12:04:38;10.00;99.90
22112;DHT22;11222;50.872;4.312;2023-04-06T12:07:04;10.00;99.90
22112;DHT22;11222;50.872;4.312;2023-04-06T12:09:30;9.90;99.90
22112;DHT22;11222;50.872;4.312;2023-04-06T12:11:56;9.90;99.90
22112;DHT22;11222;50.872;4.312;2023-04-06T12:14:22;10.10;99.90
22112;DHT22;11222;50.872;4.312;2023-04-06T12:16:48;10.20;99.90
22112;DHT22;11222;50.872;4.312;2023-04-06T12:19:14;10.10;99.90
22112;DHT22;11222;50.872;4.312;2023-04-06T12:21:40;10.00;99.90
22112;DHT22;11222;50.872;4.312;2023-04-06T12:24:06;10.10;99.90
22112;DHT22;11222;50.872;4.312;2023-04-06T12:26:32;10.10;99.90
22112;DHT22;11222;50.872;4.312;2023-04-06T12:28:59;9.90;99.90
22112;DHT22;11222;50.872;4.312;2023-04-06T12:31:37;9.80;99.90
22112;DHT22;11222;50.872;4.312;2023-04-06T12:34:10;9.90;99.90
22112;DHT22;11222;50.872;4.312;2023-04-06T12:36:37;10.00;99.90
22112;DHT22;11222;50.872;4.312;2023-04-06T12:39:03;10.20;99.90
22112;DHT22;11222;50.872;4.312;2023-04-06T12:41:29;10.10;99.90
22112;DHT22;11222;50.872;4.312;2023-04-06T12:43:55;10.10;99.90
22112;DHT22;11222;50.872;4.312;2023-04-06T12:46:21;10.00;99.90
22112;DHT22;11222;50.872;4.312;2023-04-06T12:48:47;9.90;99.90
22112;DHT22;11222;50.872;4.312;2023-04-06T12:51:13;9.90;99.90
22112;DHT22;11222;50.872;4.312;2023-04-06T12:53:39;9.90;99.90
22112;DHT22;11222;50.872;4.312;2023-04-06T12:56:15;9.80;99.90
22112;DHT22;11222;50.872;4.312;2023-04-06T12:58:43;9.80;99.90
22112;DHT22;11222;50.872;4.312;2023-04-06T13:01:09;9.80;99.90
22112;DHT22;11222;50.872;4.312;2023-04-06T13:03:35;9.80;99.90
22112;DHT22;11222;50.872;4.312;2023-04-06T13:06:02;9.90;99.90
22112;DHT22;11222;50.872;4.312;2023-04-06T13:08:27;9.90;99.90
22112;DHT22;11222;50.872;4.312;2023-04-06T13:10:54;10.00;99.90
22112;DHT22;11222;50.872;4.312;2023-04-06T13:13:25;10.10;99.90
22112;DHT22;11222;50.872;4.312;2023-04-06T13:15:53;10.10;99.90
22112;DHT22;11222;50.872;4.312;2023-04-06T13:18:19;10.10;99.90
22112;DHT22;11222;50.872;4.312;2023-04-06T13:20:47;10.10;99.90
22112;DHT22;11222;50.872;4.312;2023-04-06T13:23:13;10.10;99.90
22112;DHT22;11222;50.872;4.312;2023-04-06T13:25:39;10.10;99.90
22112;DHT22;11222;50.872;4.312;2023-04-06T13:28:05;10.10;99.90
22112;DHT22;11222;50.872;4.312;2023-04-06T13:30:30;10.20;99.90
22112;DHT22;11222;50.872;4.312;2023-04-06T13:32:56;10.30;99.90
22112;DHT22;11222;50.872;4.312;2023-04-06T13:35:22;10.30;99.90
22112;DHT22;11222;50.872;4.312;2023-04-06T13:37:47;10.10;99.90
22112;DHT22;11222;50.872;4.312;2023-04-06T13:40:14;10.10;99.90
22112;DHT22;11222;50.872;4.312;2023-04-06T13:42:40;10.20;99.90
22112;DHT22;11222;50.872;4.312;2023-04-06T13:45:07;10.20;99.90
22112;DHT22;11222;50.872;4.312;2023-04-06T13:47:33;10.00;99.90
22112;DHT22;11222;50.872;4.312;2023-04-06T13:49:59;10.00;99.90
22112;DHT22;11222;50.872;4.312;2023-04-06T13:52:24;10.10;99.90
22112;DHT22;11222;50.872;4.312;2023-04-06T13:54:50;10.10;99.90
22112;DHT22;11222;50.872;4.312;2023-04-06T13:57:16;10.20;99.90
22112;DHT22;11222;50.872;4.312;2023-04-06T13:59:42;10.10;99.90
22112;DHT22;11222;50.872;4.312;2023-04-06T14:02:10;10.20;99.90
22112;DHT22;11222;50.872;4.312;2023-04-06T14:04:36;10.20;99.90
22112;DHT22;11222;50.872;4.312;2023-04-06T14:07:03;10.20;99.90
22112;DHT22;11222;50.872;4.312;2023-04-06T14:09:29;10.20;99.90
22112;DHT22;11222;50.872;4.312;2023-04-06T14:11:55;10.20;99.90
22112;DHT22;11222;50.872;4.312;2023-04-06T14:14:22;10.30;99.90
22112;DHT22;11222;50.872;4.312;2023-04-06T14:16:48;10.20;99.90
22112;DHT22;11222;50.872;4.312;2023-04-06T14:19:15;10.20;99.90
22112;DHT22;11222;50.872;4.312;2023-04-06T14:21:43;10.10;99.90
22112;DHT22;11222;50.872;4.312;2023-04-06T14:24:09;10.10;99.90
22112;DHT22;11222;50.872;4.312;2023-04-06T14:26:35;10.10;99.90
22112;DHT22;11222;50.872;4.312;2023-04-06T14:29:01;10.10;99.90
22112;DHT22;11222;50.872;4.312;2023-04-06T14:31:27;10.10;99.90
22112;DHT22;11222;50.872;4.312;2023-04-06T14:33:53;10.00;99.90
22112;DHT22;11222;50.872;4.312;2023-04-06T14:36:19;10.20;99.90
22112;DHT22;11222;50.872;4.312;2023-04-06T14:38:45;10.20;99.90
22112;DHT22;11222;50.872;4.312;2023-04-06T14:41:22;10.30;99.90
22112;DHT22;11222;50.872;4.312;2023-04-06T14:43:48;10.40;99.90
22112;DHT22;11222;50.872;4.312;2023-04-06T14:46:14;10.60;99.90
22112;DHT22;11222;50.872;4.312;2023-04-06T14:48:43;10.50;99.90
22112;DHT22;11222;50.872;4.312;2023-04-06T14:51:09;10.60;99.90
22112;DHT22;11222;50.872;4.312;2023-04-06T14:53:35;10.60;99.90
22112;DHT22;11222;50.872;4.312;2023-04-06T14:56:00;10.60;99.90
22112;DHT22;11222;50.872;4.312;2023-04-06T14:58:26;10.70;99.90
22112;DHT22;11222;50.872;4.312;2023-04-06T15:00:56;10.60;99.90
22112;DHT22;11222;50.872;4.312;2023-04-06T15:03:23;10.70;99.90
22112;DHT22;11222;50.872;4.312;2023-04-06T15:05:51;10.70;99.90
22112;DHT22;11222;50.872;4.312;2023-04-06T15:08:17;10.90;99.90
22112;DHT22;11222;50.872;4.312;2023-04-06T15:10:46;10.80;99.90
22112;DHT22;11222;50.872;4.312;2023-04-06T15:13:12;10.80;99.90
22112;DHT22;11222;50.872;4.312;2023-04-06T15:15:38;10.90;99.90
22112;DHT22;11222;50.872;4.312;2023-04-06T15:18:04;11.00;99.90
22112;DHT22;11222;50.872;4.312;2023-04-06T15:20:30;11.10;99.90
22112;DHT22;11222;50.872;4.312;2023-04-06T15:22:56;11.10;99.90
22112;DHT22;11222;50.872;4.312;2023-04-06T15:25:22;11.20;99.90
22112;DHT22;11222;50.872;4.312;2023-04-06T15:27:47;11.30;99.90
22112;DHT22;11222;50.872;4.312;2023-04-06T15:30:13;11.20;99.90
22112;DHT22;11222;50.872;4.312;2023-04-06T15:32:39;11.30;99.90
22112;DHT22;11222;50.872;4.312;2023-04-06T15:35:11;11.40;99.90
22112;DHT22;11222;50.872;4.312;2023-04-06T15:37:38;11.60;99.90
22112;DHT22;11222;50.872;4.312;2023-04-06T15:40:05;11.60;99.90
22112;DHT22;11222;50.872;4.312;2023-04-06T15:42:31;11.50;99.90
22112;DHT22;11222;50.872;4.312;2023-04-06T15:44:57;11.50;99.90
22112;DHT22;11222;50.872;4.312;2023-04-06T15:47:23;11.60;99.90
22112;DHT22;11222;50.872;4.312;2023-04-06T15:49:48;11.60;99.90
22112;DHT22;11222;50.872;4.312;2023-04-06T15:52:14;11.50;99.90